sensor_id;sensor_type;location;lat;lon;timestamp;P1;durP1;ratioP1;P2;durP2;ratioP2
5391;SDS011;2719;53.624;9.786;2022-08-19T00:01:11;5.30;;;4.30;;
5391;SDS011;2719;53.624;9.786;2022-08-19T00:03:38;6.57;;;4.40;;
5391;SDS011;2719;53.624;9.786;2022-08-19T00:06:05;10.40;;;4.60;;
5391;SDS011;2719;53.624;9.786;2022-08-19T00:08:32;4.57;;;3.80;;
5391;SDS011;2719;53.624;9.786;2022-08-19T00:10:58;4.87;;;4.00;;
5391;SDS011;2719;53.624;9.786;2022-08-19T00:13:26;11.57;;;4.77;;
5391;SDS011;2719;53.624;9.786;2022-08-19T00:15:53;9.23;;;6.00;;
5391;SDS011;2719;53.624;9.786;2022-08-19T00:18:20;7.63;;;5.40;;
5391;SDS011;2719;53.624;9.786;2022-08-19T00:20:47;11.23;;;7.87;;
5391;SDS011;2719;53.624;9.786;2022-08-19T00:23:13;21.40;;;8.53;;
5391;SDS011;2719;53.624;9.786;2022-08-19T00:25:40;15.07;;;8.80;;
5391;SDS011;2719;53.624;9.786;2022-08-19T00:28:07;17.03;;;8.07;;
5391;SDS011;2719;53.624;9.786;2022-08-19T00:30:35;13.97;;;8.30;;
5391;SDS011;2719;53.624;9.786;2022-08-19T00:33:02;16.53;;;10.17;;
5391;SDS011;2719;53.624;9.786;2022-08-19T00:35:29;12.50;;;8.30;;
5391;SDS011;2719;53.624;9.786;2022-08-19T00:37:55;19.77;;;11.90;;
5391;SDS011;2719;53.624;9.786;2022-08-19T00:40:23;12.87;;;9.37;;
5391;SDS011;2719;53.624;9.786;2022-08-19T00:42:50;20.73;;;9.60;;
5391;SDS011;2719;53.624;9.786;2022-08-19T00:45:20;21.70;;;9.87;;
5391;SDS011;2719;53.624;9.786;2022-08-19T00:47:50;19.70;;;11.33;;
5391;SDS011;2719;53.624;9.786;2022-08-19T00:50:18;14.00;;;8.87;;
5391;SDS011;2719;53.624;9.786;2022-08-19T00:52:47;18.63;;;10.40;;
5391;SDS011;2719;53.624;9.786;2022-08-19T00:55:18;14.00;;;9.30;;
5391;SDS011;2719;53.624;9.786;2022-08-19T00:57:48;19.03;;;9.30;;
5391;SDS011;2719;53.624;9.786;2022-08-19T01:00:19;13.43;;;8.73;;
5391;SDS011;2719;53.624;9.786;2022-08-19T01:02:46;15.60;;;9.27;;
5391;SDS011;2719;53.624;9.786;2022-08-19T01:05:16;18.10;;;10.40;;
5391;SDS011;2719;53.624;9.786;2022-08-19T01:07:48;17.40;;;9.50;;
5391;SDS011;2719;53.624;9.786;2022-08-19T01:10:17;21.57;;;10.97;;
5391;SDS011;2719;53.624;9.786;2022-08-19T01:12:47;16.83;;;9.80;;
5391;SDS011;2719;53.624;9.786;2022-08-19T01:15:16;17.37;;;10.17;;
5391;SDS011;2719;53.624;9.786;2022-08-19T01:17:46;21.03;;;11.20;;
5391;SDS011;2719;53.624;9.786;2022-08-19T01:20:15;18.90;;;11.30;;
5391;SDS011;2719;53.624;9.786;2022-08-19T01:22:46;19.80;;;11.27;;
5391;SDS011;2719;53.624;9.786;2022-08-19T01:25:16;22.47;;;11.63;;
5391;SDS011;2719;53.624;9.786;2022-08-19T01:27:46;23.83;;;12.63;;
5391;SDS011;2719;53.624;9.786;2022-08-19T01:30:16;24.40;;;12.60;;
5391;SDS011;2719;53.624;9.786;2022-08-19T01:32:47;26.97;;;11.23;;
5391;SDS011;2719;53.624;9.786;2022-08-19T01:35:14;24.63;;;11.73;;
5391;SDS011;2719;53.624;9.786;2022-08-19T01:37:44;21.87;;;10.90;;
5391;SDS011;2719;53.624;9.786;2022-08-19T01:40:13;30.30;;;12.13;;
5391;SDS011;2719;53.624;9.786;2022-08-19T01:42:40;26.33;;;12.00;;
5391;SDS011;2719;53.624;9.786;2022-08-19T01:45:07;21.93;;;10.63;;
5391;SDS011;2719;53.624;9.786;2022-08-19T01:47:34;27.10;;;11.90;;
5391;SDS011;2719;53.624;9.786;2022-08-19T01:50:03;32.30;;;12.90;;
5391;SDS011;2719;53.624;9.786;2022-08-19T01:52:34;34.93;;;15.00;;
5391;SDS011;2719;53.624;9.786;2022-08-19T01:55:02;26.37;;;13.17;;
5391;SDS011;2719;53.624;9.786;2022-08-19T01:57:30;30.53;;;13.10;;
5391;SDS011;2719;53.624;9.786;2022-08-19T01:59:56;27.93;;;13.53;;
5391;SDS011;2719;53.624;9.786;2022-08-19T02:02:24;29.67;;;13.53;;
5391;SDS011;2719;53.624;9.786;2022-08-19T02:04:51;34.87;;;14.00;;
5391;SDS011;2719;53.624;9.786;2022-08-19T02:07:18;33.90;;;14.23;;
5391;SDS011;2719;53.624;9.786;2022-08-19T02:09:46;27.57;;;14.33;;
5391;SDS011;2719;53.624;9.786;2022-08-19T02:12:14;35.67;;;15.30;;
5391;SDS011;2719;53.624;9.786;2022-08-19T02:14:42;33.37;;;16.00;;
5391;SDS011;2719;53.624;9.786;2022-08-19T02:17:09;42.50;;;16.87;;
5391;SDS011;2719;53.624;9.786;2022-08-19T02:19:35;44.30;;;16.40;;
5391;SDS011;2719;53.624;9.786;2022-08-19T02:22:02;47.67;;;15.97;;
5391;SDS011;2719;53.624;9.786;2022-08-19T02:24:29;36.47;;;17.20;;
5391;SDS011;2719;53.624;9.786;2022-08-19T02:26:55;45.63;;;18.90;;
5391;SDS011;2719;53.624;9.786;2022-08-19T02:29:24;45.23;;;17.83;;
5391;SDS011;2719;53.624;9.786;2022-08-19T02:31:51;37.93;;;16.80;;
5391;SDS011;2719;53.624;9.786;2022-08-19T02:34:18;44.00;;;18.43;;
5391;SDS011;2719;53.624;9.786;2022-08-19T02:36:45;40.93;;;16.90;;
5391;SDS011;2719;53.624;9.786;2022-08-19T02:39:11;41.97;;;19.03;;
5391;SDS011;2719;53.624;9.786;2022-08-19T02:41:37;43.77;;;17.20;;
5391;SDS011;2719;53.624;9.786;2022-08-19T02:44:04;40.07;;;17.37;;
5391;SDS011;2719;53.624;9.786;2022-08-19T02:46:32;43.27;;;17.30;;
5391;SDS011;2719;53.624;9.786;2022-08-19T02:49:00;36.60;;;18.03;;
5391;SDS011;2719;53.624;9.786;2022-08-19T02:51:29;49.67;;;18.70;;
5391;SDS011;2719;53.624;9.786;2022-08-19T02:53:57;35.10;;;16.07;;
5391;SDS011;2719;53.624;9.786;2022-08-19T02:56:24;37.40;;;16.77;;
5391;SDS011;2719;53.624;9.786;2022-08-19T02:58:52;35.43;;;16.33;;
5391;SDS011;2719;53.624;9.786;2022-08-19T03:01:20;27.83;;;14.90;;
5391;SDS011;2719;53.624;9.786;2022-08-19T03:03:50;41.80;;;14.83;;
5391;SDS011;2719;53.624;9.786;2022-08-19T03:06:17;41.67;;;15.33;;
5391;SDS011;2719;53.624;9.786;2022-08-19T03:08:44;41.03;;;14.80;;
5391;SDS011;2719;53.624;9.786;2022-08-19T03:11:12;34.03;;;12.37;;
5391;SDS011;2719;53.624;9.786;2022-08-19T03:13:40;32.53;;;14.63;;
5391;SDS011;2719;53.624;9.786;2022-08-19T03:16:09;33.37;;;14.93;;
5391;SDS011;2719;53.624;9.786;2022-08-19T03:18:37;34.53;;;14.47;;
5391;SDS011;2719;53.624;9.786;2022-08-19T03:21:05;33.57;;;14.33;;
5391;SDS011;2719;53.624;9.786;2022-08-19T03:23:32;43.90;;;16.13;;
5391;SDS011;2719;53.624;9.786;2022-08-19T03:25:59;32.87;;;15.30;;
5391;SDS011;2719;53.624;9.786;2022-08-19T03:28:30;37.00;;;16.37;;
5391;SDS011;2719;53.624;9.786;2022-08-19T03:30:58;35.87;;;17.23;;
5391;SDS011;2719;53.624;9.786;2022-08-19T03:33:26;37.20;;;16.50;;
5391;SDS011;2719;53.624;9.786;2022-08-19T03:36:00;39.43;;;15.40;;
5391;SDS011;2719;53.624;9.786;2022-08-19T03:38:30;35.83;;;17.23;;
5391;SDS011;2719;53.624;9.786;2022-08-19T03:40:58;29.70;;;16.10;;
5391;SDS011;2719;53.624;9.786;2022-08-19T03:43:31;39.00;;;17.90;;
5391;SDS011;2719;53.624;9.786;2022-08-19T03:46:02;42.70;;;16.77;;
5391;SDS011;2719;53.624;9.786;2022-08-19T03:48:31;34.20;;;15.90;;
5391;SDS011;2719;53.624;9.786;2022-08-19T03:50:58;38.80;;;17.43;;
5391;SDS011;2719;53.624;9.786;2022-08-19T03:53:27;37.20;;;17.03;;
5391;SDS011;2719;53.624;9.786;2022-08-19T03:55:56;32.90;;;15.40;;
5391;SDS011;2719;53.624;9.786;2022-08-19T03:58:24;36.60;;;18.07;;
5391;SDS011;2719;53.624;9.786;2022-08-19T04:00:52;32.73;;;15.70;;
5391;SDS011;2719;53.624;9.786;2022-08-19T04:03:19;20.37;;;12.00;;
5391;SDS011;2719;53.624;9.786;2022-08-19T04:05:46;30.10;;;9.90;;
5391;SDS011;2719;53.624;9.786;2022-08-19T04:08:13;17.20;;;9.23;;
5391;SDS011;2719;53.624;9.786;2022-08-19T04:10:45;20.20;;;8.80;;
5391;SDS011;2719;53.624;9.786;2022-08-19T04:13:13;14.47;;;8.93;;
5391;SDS011;2719;53.624;9.786;2022-08-19T04:15:41;14.67;;;8.30;;
5391;SDS011;2719;53.624;9.786;2022-08-19T04:18:11;17.10;;;7.97;;
5391;SDS011;2719;53.624;9.786;2022-08-19T04:20:39;24.67;;;9.70;;
5391;SDS011;2719;53.624;9.786;2022-08-19T04:23:07;14.53;;;8.97;;
5391;SDS011;2719;53.624;9.786;2022-08-19T04:25:37;17.50;;;9.27;;
5391;SDS011;2719;53.624;9.786;2022-08-19T04:28:05;13.17;;;7.50;;
5391;SDS011;2719;53.624;9.786;2022-08-19T04:30:39;14.27;;;7.30;;
5391;SDS011;2719;53.624;9.786;2022-08-19T04:33:08;29.70;;;10.87;;
5391;SDS011;2719;53.624;9.786;2022-08-19T04:35:36;12.17;;;7.87;;
5391;SDS011;2719;53.624;9.786;2022-08-19T04:38:04;8.87;;;6.77;;
5391;SDS011;2719;53.624;9.786;2022-08-19T04:40:31;22.77;;;7.50;;
5391;SDS011;2719;53.624;9.786;2022-08-19T04:43:16;15.03;;;7.23;;
5391;SDS011;2719;53.624;9.786;2022-08-19T04:45:44;14.50;;;7.17;;
5391;SDS011;2719;53.624;9.786;2022-08-19T04:48:11;14.33;;;6.80;;
5391;SDS011;2719;53.624;9.786;2022-08-19T04:50:39;8.97;;;6.03;;
5391;SDS011;2719;53.624;9.786;2022-08-19T04:53:07;10.57;;;6.37;;
5391;SDS011;2719;53.624;9.786;2022-08-19T04:55:34;14.30;;;7.17;;
5391;SDS011;2719;53.624;9.786;2022-08-19T04:58:03;16.23;;;5.27;;
5391;SDS011;2719;53.624;9.786;2022-08-19T05:00:30;18.60;;;6.30;;
5391;SDS011;2719;53.624;9.786;2022-08-19T05:02:58;15.00;;;5.60;;
5391;SDS011;2719;53.624;9.786;2022-08-19T05:05:25;25.00;;;5.37;;
5391;SDS011;2719;53.624;9.786;2022-08-19T05:07:52;10.53;;;5.90;;
5391;SDS011;2719;53.624;9.786;2022-08-19T05:10:20;12.83;;;4.43;;
5391;SDS011;2719;53.624;9.786;2022-08-19T05:12:47;10.27;;;4.47;;
5391;SDS011;2719;53.624;9.786;2022-08-19T05:15:14;9.23;;;5.03;;
5391;SDS011;2719;53.624;9.786;2022-08-19T05:17:41;21.67;;;7.70;;
5391;SDS011;2719;53.624;9.786;2022-08-19T05:20:29;11.40;;;4.40;;
5391;SDS011;2719;53.624;9.786;2022-08-19T05:23:28;12.37;;;4.47;;
5391;SDS011;2719;53.624;9.786;2022-08-19T05:25:55;15.23;;;5.37;;
5391;SDS011;2719;53.624;9.786;2022-08-19T05:28:22;19.20;;;4.83;;
5391;SDS011;2719;53.624;9.786;2022-08-19T05:30:48;9.87;;;4.97;;
5391;SDS011;2719;53.624;9.786;2022-08-19T05:33:15;7.60;;;4.50;;
5391;SDS011;2719;53.624;9.786;2022-08-19T05:35:44;9.90;;;5.00;;
5391;SDS011;2719;53.624;9.786;2022-08-19T05:38:11;6.70;;;4.97;;
5391;SDS011;2719;53.624;9.786;2022-08-19T05:40:38;9.83;;;4.30;;
5391;SDS011;2719;53.624;9.786;2022-08-19T05:43:06;5.33;;;3.87;;
5391;SDS011;2719;53.624;9.786;2022-08-19T05:45:37;20.60;;;5.23;;
5391;SDS011;2719;53.624;9.786;2022-08-19T05:48:05;10.27;;;3.67;;
5391;SDS011;2719;53.624;9.786;2022-08-19T05:50:31;33.77;;;5.40;;
5391;SDS011;2719;53.624;9.786;2022-08-19T05:52:59;6.87;;;3.70;;
5391;SDS011;2719;53.624;9.786;2022-08-19T05:55:26;3.77;;;3.20;;
5391;SDS011;2719;53.624;9.786;2022-08-19T05:57:53;8.23;;;3.80;;
5391;SDS011;2719;53.624;9.786;2022-08-19T06:00:19;16.97;;;5.10;;
5391;SDS011;2719;53.624;9.786;2022-08-19T06:02:46;10.80;;;4.73;;
5391;SDS011;2719;53.624;9.786;2022-08-19T06:05:13;6.93;;;3.33;;
5391;SDS011;2719;53.624;9.786;2022-08-19T06:07:40;9.10;;;4.47;;
5391;SDS011;2719;53.624;9.786;2022-08-19T06:10:09;10.47;;;4.17;;
5391;SDS011;2719;53.624;9.786;2022-08-19T06:12:37;19.63;;;4.93;;
5391;SDS011;2719;53.624;9.786;2022-08-19T06:15:05;9.60;;;3.70;;
5391;SDS011;2719;53.624;9.786;2022-08-19T06:17:34;7.00;;;3.37;;
5391;SDS011;2719;53.624;9.786;2022-08-19T06:20:01;8.00;;;3.03;;
5391;SDS011;2719;53.624;9.786;2022-08-19T06:22:29;8.40;;;3.47;;
5391;SDS011;2719;53.624;9.786;2022-08-19T06:24:56;8.90;;;3.13;;
5391;SDS011;2719;53.624;9.786;2022-08-19T06:27:24;9.70;;;2.97;;
5391;SDS011;2719;53.624;9.786;2022-08-19T06:29:50;9.23;;;3.33;;
5391;SDS011;2719;53.624;9.786;2022-08-19T06:32:18;6.50;;;2.97;;
5391;SDS011;2719;53.624;9.786;2022-08-19T06:34:44;6.90;;;2.90;;
5391;SDS011;2719;53.624;9.786;2022-08-19T06:37:12;10.20;;;3.20;;
5391;SDS011;2719;53.624;9.786;2022-08-19T06:39:40;6.73;;;2.80;;
5391;SDS011;2719;53.624;9.786;2022-08-19T06:42:09;5.10;;;2.93;;
5391;SDS011;2719;53.624;9.786;2022-08-19T06:44:39;13.43;;;3.30;;
5391;SDS011;2719;53.624;9.786;2022-08-19T06:47:08;4.60;;;3.33;;
5391;SDS011;2719;53.624;9.786;2022-08-19T06:49:36;3.97;;;2.60;;
5391;SDS011;2719;53.624;9.786;2022-08-19T06:52:03;8.87;;;2.50;;
5391;SDS011;2719;53.624;9.786;2022-08-19T06:54:30;10.77;;;3.90;;
5391;SDS011;2719;53.624;9.786;2022-08-19T06:56:58;5.43;;;2.53;;
5391;SDS011;2719;53.624;9.786;2022-08-19T06:59:27;7.20;;;2.90;;
5391;SDS011;2719;53.624;9.786;2022-08-19T07:01:59;6.70;;;2.30;;
5391;SDS011;2719;53.624;9.786;2022-08-19T07:04:30;10.80;;;2.70;;
5391;SDS011;2719;53.624;9.786;2022-08-19T07:06:59;12.13;;;3.03;;
5391;SDS011;2719;53.624;9.786;2022-08-19T07:09:27;4.20;;;1.77;;
5391;SDS011;2719;53.624;9.786;2022-08-19T07:11:55;8.93;;;3.10;;
5391;SDS011;2719;53.624;9.786;2022-08-19T07:14:23;6.87;;;3.07;;
5391;SDS011;2719;53.624;9.786;2022-08-19T07:16:51;3.93;;;2.30;;
5391;SDS011;2719;53.624;9.786;2022-08-19T07:19:22;4.50;;;2.57;;
5391;SDS011;2719;53.624;9.786;2022-08-19T07:21:51;4.30;;;3.17;;
5391;SDS011;2719;53.624;9.786;2022-08-19T07:24:19;3.83;;;2.80;;
5391;SDS011;2719;53.624;9.786;2022-08-19T07:26:48;9.53;;;2.47;;
5391;SDS011;2719;53.624;9.786;2022-08-19T07:29:17;5.93;;;2.40;;
5391;SDS011;2719;53.624;9.786;2022-08-19T07:31:48;5.20;;;2.13;;
5391;SDS011;2719;53.624;9.786;2022-08-19T07:34:15;5.40;;;2.20;;
5391;SDS011;2719;53.624;9.786;2022-08-19T07:36:43;8.20;;;2.97;;
5391;SDS011;2719;53.624;9.786;2022-08-19T07:39:12;8.33;;;3.97;;
5391;SDS011;2719;53.624;9.786;2022-08-19T07:41:40;7.50;;;3.00;;
5391;SDS011;2719;53.624;9.786;2022-08-19T07:44:07;4.93;;;2.70;;
5391;SDS011;2719;53.624;9.786;2022-08-19T07:46:35;5.90;;;4.00;;
5391;SDS011;2719;53.624;9.786;2022-08-19T07:49:04;6.00;;;3.53;;
5391;SDS011;2719;53.624;9.786;2022-08-19T07:51:32;8.93;;;5.00;;
5391;SDS011;2719;53.624;9.786;2022-08-19T07:54:01;6.73;;;3.23;;
5391;SDS011;2719;53.624;9.786;2022-08-19T07:56:28;14.70;;;4.27;;
5391;SDS011;2719;53.624;9.786;2022-08-19T07:58:55;4.63;;;4.07;;
5391;SDS011;2719;53.624;9.786;2022-08-19T08:01:22;10.33;;;4.57;;
5391;SDS011;2719;53.624;9.786;2022-08-19T08:03:50;7.37;;;3.33;;
5391;SDS011;2719;53.624;9.786;2022-08-19T08:06:36;9.43;;;4.00;;
5391;SDS011;2719;53.624;9.786;2022-08-19T08:09:23;5.40;;;3.70;;
5391;SDS011;2719;53.624;9.786;2022-08-19T08:11:53;8.47;;;3.93;;
5391;SDS011;2719;53.624;9.786;2022-08-19T08:14:22;10.97;;;4.73;;
5391;SDS011;2719;53.624;9.786;2022-08-19T08:16:51;5.63;;;4.00;;
5391;SDS011;2719;53.624;9.786;2022-08-19T08:19:19;5.77;;;3.77;;
5391;SDS011;2719;53.624;9.786;2022-08-19T08:21:47;8.60;;;3.93;;
5391;SDS011;2719;53.624;9.786;2022-08-19T08:24:15;3.83;;;2.43;;
5391;SDS011;2719;53.624;9.786;2022-08-19T08:26:43;12.50;;;3.90;;
5391;SDS011;2719;53.624;9.786;2022-08-19T08:29:11;17.87;;;4.67;;
5391;SDS011;2719;53.624;9.786;2022-08-19T08:31:38;6.80;;;3.83;;
5391;SDS011;2719;53.624;9.786;2022-08-19T08:34:06;11.40;;;4.27;;
5391;SDS011;2719;53.624;9.786;2022-08-19T08:36:35;7.03;;;4.00;;
5391;SDS011;2719;53.624;9.786;2022-08-19T08:39:06;6.50;;;3.30;;
5391;SDS011;2719;53.624;9.786;2022-08-19T08:41:36;11.53;;;3.13;;
5391;SDS011;2719;53.624;9.786;2022-08-19T08:44:12;7.80;;;3.87;;
5391;SDS011;2719;53.624;9.786;2022-08-19T08:46:44;6.27;;;3.70;;
5391;SDS011;2719;53.624;9.786;2022-08-19T08:49:17;7.73;;;3.60;;
5391;SDS011;2719;53.624;9.786;2022-08-19T08:51:51;6.77;;;4.10;;
5391;SDS011;2719;53.624;9.786;2022-08-19T08:54:24;8.67;;;3.90;;
5391;SDS011;2719;53.624;9.786;2022-08-19T08:56:56;7.77;;;4.23;;
5391;SDS011;2719;53.624;9.786;2022-08-19T08:59:25;7.70;;;4.77;;
5391;SDS011;2719;53.624;9.786;2022-08-19T09:01:56;8.73;;;5.07;;
5391;SDS011;2719;53.624;9.786;2022-08-19T09:04:22;14.67;;;5.07;;
5391;SDS011;2719;53.624;9.786;2022-08-19T09:06:50;15.23;;;5.60;;
5391;SDS011;2719;53.624;9.786;2022-08-19T09:09:23;9.13;;;5.03;;
5391;SDS011;2719;53.624;9.786;2022-08-19T09:11:56;14.63;;;5.30;;
5391;SDS011;2719;53.624;9.786;2022-08-19T09:14:36;9.33;;;4.93;;
5391;SDS011;2719;53.624;9.786;2022-08-19T09:17:11;13.27;;;5.70;;
5391;SDS011;2719;53.624;9.786;2022-08-19T09:19:46;7.70;;;6.00;;
5391;SDS011;2719;53.624;9.786;2022-08-19T09:22:16;12.33;;;5.13;;
5391;SDS011;2719;53.624;9.786;2022-08-19T09:24:46;6.27;;;4.30;;
5391;SDS011;2719;53.624;9.786;2022-08-19T09:27:13;14.60;;;6.20;;
5391;SDS011;2719;53.624;9.786;2022-08-19T09:29:41;9.57;;;5.77;;
5391;SDS011;2719;53.624;9.786;2022-08-19T09:32:08;13.83;;;6.90;;
5391;SDS011;2719;53.624;9.786;2022-08-19T09:34:34;18.20;;;8.17;;
5391;SDS011;2719;53.624;9.786;2022-08-19T09:37:01;11.37;;;6.90;;
5391;SDS011;2719;53.624;9.786;2022-08-19T09:39:30;16.93;;;8.37;;
5391;SDS011;2719;53.624;9.786;2022-08-19T09:41:57;16.37;;;9.57;;
5391;SDS011;2719;53.624;9.786;2022-08-19T09:44:25;14.83;;;7.87;;
5391;SDS011;2719;53.624;9.786;2022-08-19T09:46:54;18.37;;;8.67;;
5391;SDS011;2719;53.624;9.786;2022-08-19T09:49:24;13.57;;;8.47;;
5391;SDS011;2719;53.624;9.786;2022-08-19T09:51:53;17.30;;;8.40;;
5391;SDS011;2719;53.624;9.786;2022-08-19T09:54:21;14.80;;;8.77;;
5391;SDS011;2719;53.624;9.786;2022-08-19T09:56:51;15.90;;;8.90;;
5391;SDS011;2719;53.624;9.786;2022-08-19T09:59:18;11.20;;;8.23;;
5391;SDS011;2719;53.624;9.786;2022-08-19T10:01:45;17.43;;;9.10;;
5391;SDS011;2719;53.624;9.786;2022-08-19T10:04:13;19.20;;;9.50;;
5391;SDS011;2719;53.624;9.786;2022-08-19T10:06:40;14.33;;;8.47;;
5391;SDS011;2719;53.624;9.786;2022-08-19T10:09:07;15.57;;;8.20;;
5391;SDS011;2719;53.624;9.786;2022-08-19T10:11:36;15.33;;;9.10;;
5391;SDS011;2719;53.624;9.786;2022-08-19T10:14:06;15.43;;;9.57;;
5391;SDS011;2719;53.624;9.786;2022-08-19T10:16:33;18.70;;;9.27;;
5391;SDS011;2719;53.624;9.786;2022-08-19T10:19:02;19.13;;;8.50;;
5391;SDS011;2719;53.624;9.786;2022-08-19T10:21:30;14.83;;;7.67;;
5391;SDS011;2719;53.624;9.786;2022-08-19T10:24:00;12.30;;;7.87;;
5391;SDS011;2719;53.624;9.786;2022-08-19T10:26:29;14.60;;;7.40;;
5391;SDS011;2719;53.624;9.786;2022-08-19T10:28:57;19.70;;;10.00;;
5391;SDS011;2719;53.624;9.786;2022-08-19T10:31:25;20.00;;;8.90;;
5391;SDS011;2719;53.624;9.786;2022-08-19T10:33:53;22.30;;;9.47;;
5391;SDS011;2719;53.624;9.786;2022-08-19T10:36:23;25.47;;;9.70;;
5391;SDS011;2719;53.624;9.786;2022-08-19T10:38:53;11.93;;;8.50;;
5391;SDS011;2719;53.624;9.786;2022-08-19T10:41:25;16.50;;;9.03;;
5391;SDS011;2719;53.624;9.786;2022-08-19T10:43:55;16.83;;;9.37;;
5391;SDS011;2719;53.624;9.786;2022-08-19T10:46:23;14.87;;;8.47;;
5391;SDS011;2719;53.624;9.786;2022-08-19T10:48:51;15.73;;;8.37;;
5391;SDS011;2719;53.624;9.786;2022-08-19T10:51:19;15.33;;;10.10;;
5391;SDS011;2719;53.624;9.786;2022-08-19T10:54:05;18.60;;;8.33;;
5391;SDS011;2719;53.624;9.786;2022-08-19T10:56:32;13.97;;;8.53;;
5391;SDS011;2719;53.624;9.786;2022-08-19T10:59:17;12.63;;;8.07;;
5391;SDS011;2719;53.624;9.786;2022-08-19T11:01:47;11.20;;;7.87;;
5391;SDS011;2719;53.624;9.786;2022-08-19T11:04:14;13.83;;;9.07;;
5391;SDS011;2719;53.624;9.786;2022-08-19T11:06:42;17.77;;;9.50;;
5391;SDS011;2719;53.624;9.786;2022-08-19T11:09:11;17.03;;;8.33;;
5391;SDS011;2719;53.624;9.786;2022-08-19T11:11:38;12.43;;;8.93;;
5391;SDS011;2719;53.624;9.786;2022-08-19T11:14:06;16.50;;;8.87;;
5391;SDS011;2719;53.624;9.786;2022-08-19T11:16:33;13.07;;;8.90;;
5391;SDS011;2719;53.624;9.786;2022-08-19T11:19:00;17.40;;;8.60;;
5391;SDS011;2719;53.624;9.786;2022-08-19T11:21:28;11.77;;;8.80;;
5391;SDS011;2719;53.624;9.786;2022-08-19T11:23:57;13.70;;;7.93;;
5391;SDS011;2719;53.624;9.786;2022-08-19T11:26:28;17.00;;;9.67;;
5391;SDS011;2719;53.624;9.786;2022-08-19T11:28:55;15.57;;;9.80;;
5391;SDS011;2719;53.624;9.786;2022-08-19T11:31:24;14.60;;;9.33;;
5391;SDS011;2719;53.624;9.786;2022-08-19T11:33:55;12.53;;;8.27;;
5391;SDS011;2719;53.624;9.786;2022-08-19T11:36:22;15.20;;;8.60;;
5391;SDS011;2719;53.624;9.786;2022-08-19T11:38:49;17.70;;;9.27;;
5391;SDS011;2719;53.624;9.786;2022-08-19T11:41:17;14.13;;;9.63;;
5391;SDS011;2719;53.624;9.786;2022-08-19T11:43:46;10.60;;;9.03;;
5391;SDS011;2719;53.624;9.786;2022-08-19T11:46:13;18.90;;;9.50;;
5391;SDS011;2719;53.624;9.786;2022-08-19T11:48:42;17.17;;;10.37;;
5391;SDS011;2719;53.624;9.786;2022-08-19T11:51:10;12.80;;;9.60;;
5391;SDS011;2719;53.624;9.786;2022-08-19T11:53:39;15.00;;;9.93;;
5391;SDS011;2719;53.624;9.786;2022-08-19T11:56:06;15.50;;;9.77;;
5391;SDS011;2719;53.624;9.786;2022-08-19T11:58:34;12.23;;;8.87;;
5391;SDS011;2719;53.624;9.786;2022-08-19T12:01:05;14.00;;;9.67;;
5391;SDS011;2719;53.624;9.786;2022-08-19T12:03:33;11.33;;;8.63;;
5391;SDS011;2719;53.624;9.786;2022-08-19T12:06:02;17.33;;;8.70;;
5391;SDS011;2719;53.624;9.786;2022-08-19T12:08:30;14.90;;;8.87;;
5391;SDS011;2719;53.624;9.786;2022-08-19T12:10:56;10.37;;;8.00;;
5391;SDS011;2719;53.624;9.786;2022-08-19T12:13:26;10.90;;;7.47;;
5391;SDS011;2719;53.624;9.786;2022-08-19T12:15:53;10.00;;;7.47;;
5391;SDS011;2719;53.624;9.786;2022-08-19T12:18:21;8.80;;;7.33;;
5391;SDS011;2719;53.624;9.786;2022-08-19T12:20:50;11.40;;;8.83;;
5391;SDS011;2719;53.624;9.786;2022-08-19T12:23:17;13.90;;;8.30;;
5391;SDS011;2719;53.624;9.786;2022-08-19T12:25:45;14.73;;;9.60;;
5391;SDS011;2719;53.624;9.786;2022-08-19T12:28:16;13.20;;;10.10;;
5391;SDS011;2719;53.624;9.786;2022-08-19T12:30:45;9.47;;;8.17;;
5391;SDS011;2719;53.624;9.786;2022-08-19T12:33:11;14.03;;;9.50;;
5391;SDS011;2719;53.624;9.786;2022-08-19T12:35:40;9.33;;;7.30;;
5391;SDS011;2719;53.624;9.786;2022-08-19T12:38:08;14.13;;;9.37;;
5391;SDS011;2719;53.624;9.786;2022-08-19T12:40:35;12.30;;;8.70;;
5391;SDS011;2719;53.624;9.786;2022-08-19T12:43:02;11.80;;;9.10;;
5391;SDS011;2719;53.624;9.786;2022-08-19T12:45:29;13.67;;;8.10;;
5391;SDS011;2719;53.624;9.786;2022-08-19T12:47:55;16.33;;;9.63;;
5391;SDS011;2719;53.624;9.786;2022-08-19T12:50:23;10.07;;;8.27;;
5391;SDS011;2719;53.624;9.786;2022-08-19T12:52:51;11.00;;;8.87;;
5391;SDS011;2719;53.624;9.786;2022-08-19T12:55:18;12.03;;;8.63;;
5391;SDS011;2719;53.624;9.786;2022-08-19T12:57:45;11.30;;;8.77;;
5391;SDS011;2719;53.624;9.786;2022-08-19T13:00:15;13.93;;;7.97;;
5391;SDS011;2719;53.624;9.786;2022-08-19T13:02:44;12.67;;;8.17;;
5391;SDS011;2719;53.624;9.786;2022-08-19T13:05:13;9.03;;;8.03;;
5391;SDS011;2719;53.624;9.786;2022-08-19T13:07:41;14.03;;;8.90;;
5391;SDS011;2719;53.624;9.786;2022-08-19T13:10:12;11.30;;;8.67;;
5391;SDS011;2719;53.624;9.786;2022-08-19T13:12:41;9.10;;;7.30;;
5391;SDS011;2719;53.624;9.786;2022-08-19T13:15:07;19.03;;;9.57;;
5391;SDS011;2719;53.624;9.786;2022-08-19T13:17:35;14.00;;;10.07;;
5391;SDS011;2719;53.624;9.786;2022-08-19T13:20:02;12.37;;;8.80;;
5391;SDS011;2719;53.624;9.786;2022-08-19T13:22:30;9.87;;;8.70;;
5391;SDS011;2719;53.624;9.786;2022-08-19T13:24:57;12.83;;;9.33;;
5391;SDS011;2719;53.624;9.786;2022-08-19T13:27:25;14.03;;;9.33;;
5391;SDS011;2719;53.624;9.786;2022-08-19T13:29:51;14.13;;;10.87;;
5391;SDS011;2719;53.624;9.786;2022-08-19T13:32:35;18.40;;;10.20;;
5391;SDS011;2719;53.624;9.786;2022-08-19T13:35:25;13.60;;;9.60;;
5391;SDS011;2719;53.624;9.786;2022-08-19T13:37:51;14.37;;;9.33;;
5391;SDS011;2719;53.624;9.786;2022-08-19T13:40:19;19.50;;;10.30;;
5391;SDS011;2719;53.624;9.786;2022-08-19T13:42:51;11.93;;;8.50;;
5391;SDS011;2719;53.624;9.786;2022-08-19T13:45:19;15.00;;;8.37;;
5391;SDS011;2719;53.624;9.786;2022-08-19T13:47:47;10.50;;;8.97;;
5391;SDS011;2719;53.624;9.786;2022-08-19T13:50:17;11.17;;;9.37;;
5391;SDS011;2719;53.624;9.786;2022-08-19T13:52:45;11.93;;;9.63;;
5391;SDS011;2719;53.624;9.786;2022-08-19T13:55:13;12.77;;;9.23;;
5391;SDS011;2719;53.624;9.786;2022-08-19T13:57:41;11.57;;;8.20;;
5391;SDS011;2719;53.624;9.786;2022-08-19T14:00:11;11.10;;;8.53;;
5391;SDS011;2719;53.624;9.786;2022-08-19T14:02:42;11.83;;;9.10;;
5391;SDS011;2719;53.624;9.786;2022-08-19T14:05:10;9.87;;;7.87;;
5391;SDS011;2719;53.624;9.786;2022-08-19T14:07:38;10.67;;;7.70;;
5391;SDS011;2719;53.624;9.786;2022-08-19T14:10:06;16.73;;;7.80;;
5391;SDS011;2719;53.624;9.786;2022-08-19T14:12:34;13.80;;;8.90;;
5391;SDS011;2719;53.624;9.786;2022-08-19T14:15:02;14.90;;;8.20;;
5391;SDS011;2719;53.624;9.786;2022-08-19T14:17:31;9.80;;;7.87;;
5391;SDS011;2719;53.624;9.786;2022-08-19T14:20:00;11.20;;;7.00;;
5391;SDS011;2719;53.624;9.786;2022-08-19T14:22:31;8.47;;;6.17;;
5391;SDS011;2719;53.624;9.786;2022-08-19T14:24:58;8.23;;;6.50;;
5391;SDS011;2719;53.624;9.786;2022-08-19T14:27:25;7.87;;;6.47;;
5391;SDS011;2719;53.624;9.786;2022-08-19T14:29:51;9.23;;;6.77;;
5391;SDS011;2719;53.624;9.786;2022-08-19T14:32:18;16.17;;;6.80;;
5391;SDS011;2719;53.624;9.786;2022-08-19T14:34:47;10.83;;;6.87;;
5391;SDS011;2719;53.624;9.786;2022-08-19T14:37:14;12.93;;;7.07;;
5391;SDS011;2719;53.624;9.786;2022-08-19T14:39:41;8.07;;;6.20;;
5391;SDS011;2719;53.624;9.786;2022-08-19T14:42:08;8.30;;;5.27;;
5391;SDS011;2719;53.624;9.786;2022-08-19T14:44:36;6.77;;;5.13;;
5391;SDS011;2719;53.624;9.786;2022-08-19T14:47:03;9.27;;;6.00;;
5391;SDS011;2719;53.624;9.786;2022-08-19T14:49:31;5.27;;;4.77;;
5391;SDS011;2719;53.624;9.786;2022-08-19T14:52:00;9.33;;;6.63;;
5391;SDS011;2719;53.624;9.786;2022-08-19T14:54:28;8.60;;;6.30;;
5391;SDS011;2719;53.624;9.786;2022-08-19T14:56:55;5.70;;;5.10;;
5391;SDS011;2719;53.624;9.786;2022-08-19T14:59:21;7.97;;;5.40;;
5391;SDS011;2719;53.624;9.786;2022-08-19T15:01:48;6.10;;;4.97;;
5391;SDS011;2719;53.624;9.786;2022-08-19T15:04:16;6.33;;;4.60;;
5391;SDS011;2719;53.624;9.786;2022-08-19T15:06:42;8.17;;;5.77;;
5391;SDS011;2719;53.624;9.786;2022-08-19T15:09:10;5.70;;;5.10;;
5391;SDS011;2719;53.624;9.786;2022-08-19T15:11:37;12.03;;;6.00;;